createdAt,value
2022-09-03T00:00:19.609Z,25.21
2022-09-03T00:01:20.228Z,25.17
2022-09-03T00:02:20.880Z,25.17
2022-09-03T00:03:21.464Z,25.11
2022-09-03T00:04:25.834Z,25.11
2022-09-03T00:05:23.655Z,25.21
2022-09-03T00:06:24.253Z,25.17
2022-09-03T00:07:24.853Z,25.18
2022-09-03T00:08:25.451Z,25.21
2022-09-03T00:09:26.051Z,25.17
2022-09-03T00:10:26.651Z,25.17
2022-09-03T00:11:40.342Z,25.11
2022-09-03T00:12:41.585Z,25.17
2022-09-03T00:13:42.175Z,25.17
2022-09-03T00:15:20.455Z,25.17
2022-09-03T00:16:21.085Z,25.11
2022-09-03T00:17:34.330Z,25.14
2022-09-03T00:18:34.919Z,25.08
2022-09-03T00:19:35.715Z,25.13
2022-09-03T00:20:36.310Z,25.14
2022-09-03T00:21:36.899Z,25.11
2022-09-03T00:22:37.486Z,25.14
2022-09-03T00:23:38.077Z,25.11
2022-09-03T00:24:38.669Z,25.10
2022-09-03T00:25:39.268Z,25.10
2022-09-03T00:26:39.851Z,25.14
2022-09-03T00:28:05.333Z,25.17
2022-09-03T00:29:05.933Z,25.08
2022-09-03T00:30:06.535Z,25.07
2022-09-03T00:31:07.206Z,25.10
2022-09-03T00:32:07.792Z,25.10
2022-09-03T00:33:08.392Z,25.14
2022-09-03T00:34:08.993Z,25.11
2022-09-03T00:35:09.641Z,25.10
2022-09-03T00:36:10.292Z,25.07
2022-09-03T00:37:15.543Z,25.10
2022-09-03T00:38:12.630Z,25.07
2022-09-03T00:39:13.242Z,25.11
2022-09-03T00:40:13.844Z,25.10
2022-09-03T00:41:14.499Z,25.04
2022-09-03T00:42:15.104Z,25.11
2022-09-03T00:43:15.710Z,25.07
2022-09-03T00:44:16.365Z,25.10
2022-09-03T00:45:16.968Z,25.07
2022-09-03T00:46:17.604Z,25.08
2022-09-03T00:47:18.213Z,25.10
2022-09-03T00:48:18.889Z,25.06
2022-09-03T00:49:20.473Z,25.11
2022-09-03T00:50:21.081Z,25.03
2022-09-03T00:51:21.682Z,25.04
2022-09-03T00:52:23.449Z,25.03
2022-09-03T00:53:23.885Z,25.03
2022-09-03T00:54:24.487Z,25.04
2022-09-03T00:55:25.076Z,25.06
2022-09-03T00:56:25.674Z,24.96
2022-09-03T00:57:26.270Z,25.01
2022-09-03T00:58:26.866Z,25.08
2022-09-03T00:59:27.467Z,25.10
2022-09-03T01:00:28.065Z,25.06
2022-09-03T01:01:28.804Z,25.03
2022-09-03T01:02:29.495Z,25.04
2022-09-03T01:03:30.134Z,25.08
2022-09-03T01:04:30.731Z,25.11
2022-09-03T01:05:31.330Z,24.99
2022-09-03T01:06:31.929Z,25.01
2022-09-03T01:07:32.538Z,25.06
2022-09-03T01:08:33.141Z,25.01
2022-09-03T01:09:33.744Z,25.04
2022-09-03T01:10:34.345Z,25.04
2022-09-03T01:11:34.935Z,24.99
2022-09-03T01:12:35.531Z,25.06
2022-09-03T01:13:36.129Z,24.99
2022-09-03T01:14:36.725Z,25.07
2022-09-03T01:15:37.426Z,24.95
2022-09-03T01:16:38.024Z,24.98
2022-09-03T01:17:38.630Z,25.01
2022-09-03T01:18:39.230Z,24.98
2022-09-03T01:19:39.834Z,25.03
2022-09-03T01:20:40.437Z,25.04
2022-09-03T01:21:41.039Z,24.96
2022-09-03T01:22:41.644Z,24.99
2022-09-03T01:23:42.232Z,25.06
2022-09-03T01:24:42.828Z,24.98
2022-09-03T01:25:43.425Z,25.01
2022-09-03T01:26:44.020Z,25.04
2022-09-03T01:27:44.639Z,24.96
2022-09-03T01:28:45.301Z,25.04
2022-09-03T01:29:45.904Z,25.03
2022-09-03T01:30:46.559Z,24.95
2022-09-03T01:31:47.148Z,25.03
2022-09-03T01:32:47.750Z,24.98
2022-09-03T01:33:48.353Z,25.01
2022-09-03T01:34:48.954Z,24.91
2022-09-03T01:35:49.543Z,25.04
2022-09-03T01:36:50.141Z,25.01
2022-09-03T01:37:50.736Z,24.93
2022-09-03T01:38:51.334Z,25.01
2022-09-03T01:39:52.051Z,24.98
2022-09-03T01:40:52.622Z,25.03
2022-09-03T01:41:53.272Z,24.99
2022-09-03T01:42:53.929Z,24.96
2022-09-03T01:43:54.525Z,25.04
2022-09-03T01:44:55.171Z,24.98
2022-09-03T01:45:55.812Z,24.95
2022-09-03T01:46:56.414Z,25.01
2022-09-03T01:47:57.012Z,24.98
2022-09-03T01:48:57.607Z,24.93
2022-09-03T01:49:58.205Z,24.96
2022-09-03T01:50:58.802Z,24.96
2022-09-03T01:51:59.565Z,24.99
2022-09-03T01:53:00.166Z,24.95
2022-09-03T01:54:00.770Z,25.03
2022-09-03T01:55:01.378Z,24.96
2022-09-03T01:56:02.043Z,24.99
2022-09-03T01:57:02.644Z,24.89
2022-09-03T01:58:03.248Z,24.92
2022-09-03T01:59:03.849Z,24.91
2022-09-03T02:00:04.517Z,24.93
2022-09-03T02:01:05.305Z,24.99
2022-09-03T02:02:05.945Z,24.91
2022-09-03T02:03:06.554Z,24.98
2022-09-03T02:04:07.188Z,24.96
2022-09-03T02:05:07.785Z,24.89
2022-09-03T02:06:08.384Z,24.88
2022-09-03T02:07:08.983Z,24.93
2022-09-03T02:08:09.616Z,25.01
2022-09-03T02:09:10.257Z,24.96
2022-09-03T02:10:10.861Z,24.95
2022-09-03T02:11:11.499Z,24.92
2022-09-03T02:12:12.065Z,24.95
2022-09-03T02:13:12.661Z,24.96
2022-09-03T02:14:13.258Z,25.03
2022-09-03T02:15:13.855Z,24.98
2022-09-03T02:16:14.555Z,24.98
2022-09-03T02:17:15.156Z,24.96
2022-09-03T02:18:15.781Z,24.89
2022-09-03T02:19:16.420Z,24.89
2022-09-03T02:20:17.083Z,24.91
2022-09-03T02:21:17.686Z,24.92
2022-09-03T02:22:18.354Z,24.95
2022-09-03T02:23:18.956Z,24.88
2022-09-03T02:24:20.540Z,24.86
2022-09-03T02:25:21.139Z,24.92
2022-09-03T02:26:21.737Z,24.92
2022-09-03T02:27:22.335Z,24.91
2022-09-03T02:28:22.944Z,24.88
2022-09-03T02:29:23.546Z,24.91
2022-09-03T02:30:24.150Z,24.88
2022-09-03T02:31:24.844Z,24.88
2022-09-03T02:32:25.468Z,24.91
2022-09-03T02:33:26.069Z,24.88
2022-09-03T02:34:26.672Z,24.86
2022-09-03T02:35:27.274Z,24.86
2022-09-03T02:36:27.878Z,24.93
2022-09-03T02:37:28.480Z,24.91
2022-09-03T02:38:29.083Z,24.86
2022-09-03T02:39:29.752Z,24.88
2022-09-03T02:40:30.351Z,24.88
2022-09-03T02:41:30.942Z,24.88
2022-09-03T02:42:31.541Z,24.91
2022-09-03T02:43:32.138Z,24.91
2022-09-03T02:44:32.754Z,24.88
2022-09-03T02:45:33.418Z,24.88
2022-09-03T02:46:34.076Z,24.91
2022-09-03T02:47:34.704Z,24.89
2022-09-03T02:48:35.307Z,24.89
2022-09-03T02:49:35.910Z,24.86
2022-09-03T02:50:36.564Z,24.95
2022-09-03T02:51:37.317Z,24.92
2022-09-03T02:52:38.073Z,24.89
2022-09-03T02:53:39.579Z,24.88
2022-09-03T02:54:40.181Z,24.86
2022-09-03T02:55:40.822Z,24.91
2022-09-03T02:56:41.433Z,24.86
2022-09-03T02:57:42.035Z,24.89
2022-09-03T02:58:42.638Z,24.86
2022-09-03T02:59:43.226Z,24.91
2022-09-03T03:00:43.824Z,24.85
2022-09-03T03:01:44.519Z,24.86
2022-09-03T03:02:45.161Z,24.85
2022-09-03T03:03:45.770Z,24.91
2022-09-03T03:04:46.365Z,24.86
2022-09-03T03:05:46.961Z,24.89
2022-09-03T03:06:47.826Z,24.86
2022-09-03T03:07:48.491Z,24.95
2022-09-03T03:08:49.087Z,24.86
2022-09-03T03:09:49.683Z,24.86
2022-09-03T03:10:50.293Z,24.85
2022-09-03T03:11:50.885Z,24.85
2022-09-03T03:12:51.493Z,24.86
2022-09-03T03:13:52.095Z,24.89
2022-09-03T03:14:52.850Z,24.81
2022-09-03T03:15:53.667Z,24.88
2022-09-03T03:16:54.318Z,24.88
2022-09-03T03:17:54.921Z,24.84
2022-09-03T03:18:55.525Z,24.85
2022-09-03T03:19:56.127Z,24.86
2022-09-03T03:20:56.731Z,24.80
2022-09-03T03:21:57.341Z,24.92
2022-09-03T03:22:57.939Z,24.89
2022-09-03T03:23:58.542Z,24.85
2022-09-03T03:24:59.147Z,24.84
2022-09-03T03:25:59.736Z,24.84
2022-09-03T03:27:00.348Z,24.84
2022-09-03T03:28:01.001Z,24.88
2022-09-03T03:29:01.590Z,24.80
2022-09-03T03:30:02.186Z,24.89
2022-09-03T03:31:02.842Z,24.85
2022-09-03T03:32:03.433Z,24.88
2022-09-03T03:33:04.031Z,24.86
2022-09-03T03:34:04.628Z,24.92
2022-09-03T03:35:05.226Z,24.85
2022-09-03T03:36:05.823Z,24.88
2022-09-03T03:37:06.422Z,24.81
2022-09-03T03:38:07.019Z,24.84
2022-09-03T03:39:07.618Z,24.88
2022-09-03T03:40:09.207Z,24.88
2022-09-03T03:41:09.823Z,24.78
2022-09-03T03:42:10.423Z,24.86
2022-09-03T03:43:11.028Z,24.80
2022-09-03T03:44:11.631Z,24.86
2022-09-03T03:45:12.235Z,24.86
2022-09-03T03:46:12.878Z,24.86
2022-09-03T03:47:13.511Z,24.81
2022-09-03T03:48:14.115Z,24.85
2022-09-03T03:49:14.709Z,24.78
2022-09-03T03:50:15.308Z,24.81
2022-09-03T03:51:15.905Z,24.88
2022-09-03T03:52:16.502Z,24.92
2022-09-03T03:53:17.111Z,24.85
2022-09-03T03:54:17.730Z,24.78
2022-09-03T03:55:18.491Z,24.88
2022-09-03T03:56:19.095Z,24.84
2022-09-03T03:57:19.686Z,24.84
2022-09-03T03:58:20.333Z,24.84
2022-09-03T03:59:20.984Z,24.78
2022-09-03T04:00:21.579Z,24.86
2022-09-03T04:01:23.211Z,24.88
2022-09-03T04:02:23.901Z,24.84
2022-09-03T04:03:24.570Z,24.88
2022-09-03T04:04:25.216Z,24.78
2022-09-03T04:05:25.826Z,24.81
2022-09-03T04:06:27.423Z,24.78
2022-09-03T04:07:28.027Z,24.86
2022-09-03T04:08:28.621Z,24.84
2022-09-03T04:09:29.365Z,24.78
2022-09-03T04:10:29.961Z,24.89
2022-09-03T04:11:30.558Z,24.84
2022-09-03T04:12:31.154Z,24.78
2022-09-03T04:13:31.765Z,24.86
2022-09-03T04:14:32.369Z,24.80
2022-09-03T04:15:33.893Z,24.85
2022-09-03T04:16:34.565Z,24.81
2022-09-03T04:17:35.191Z,24.77
2022-09-03T04:18:35.794Z,24.76
2022-09-03T04:19:36.547Z,24.84
2022-09-03T04:20:37.148Z,24.77
2022-09-03T04:21:37.751Z,24.76
2022-09-03T04:22:38.354Z,24.78
2022-09-03T04:23:38.956Z,24.85
2022-09-03T04:24:39.558Z,24.76
2022-09-03T04:25:40.148Z,24.76
2022-09-03T04:26:40.745Z,24.80
2022-09-03T04:27:41.355Z,24.76
2022-09-03T04:28:41.948Z,24.78
2022-09-03T04:29:42.540Z,24.78
2022-09-03T04:30:43.169Z,24.74
2022-09-03T04:31:44.876Z,24.76
2022-09-03T04:32:45.472Z,24.81
2022-09-03T04:33:46.068Z,24.78
2022-09-03T04:34:46.723Z,24.78
2022-09-03T04:35:47.319Z,24.74
2022-09-03T04:36:52.305Z,24.76
2022-09-03T04:37:49.505Z,24.74
2022-09-03T04:38:50.101Z,24.74
2022-09-03T04:39:50.756Z,24.73
2022-09-03T04:40:51.350Z,24.78
2022-09-03T04:41:51.958Z,24.76
2022-09-03T04:42:52.547Z,24.74
2022-09-03T04:43:53.157Z,24.76
2022-09-03T04:44:53.760Z,24.78
2022-09-03T04:45:54.439Z,24.76
2022-09-03T04:46:55.046Z,24.77
2022-09-03T04:47:55.643Z,24.68
2022-09-03T04:48:56.239Z,24.70
2022-09-03T04:49:56.848Z,24.76
2022-09-03T04:50:57.451Z,24.76
2022-09-03T04:51:58.055Z,24.76
2022-09-03T04:52:58.657Z,24.73
2022-09-03T04:53:59.258Z,24.76
2022-09-03T04:54:59.862Z,24.78
2022-09-03T04:56:00.463Z,24.80
2022-09-03T04:57:01.067Z,24.78
2022-09-03T04:58:01.668Z,24.74
2022-09-03T04:59:02.273Z,24.77
2022-09-03T05:00:03.023Z,24.77
2022-09-03T05:01:03.719Z,24.76
2022-09-03T05:02:04.365Z,24.76
2022-09-03T05:03:04.962Z,24.77
2022-09-03T05:04:05.566Z,24.76
2022-09-03T05:05:06.156Z,24.73
2022-09-03T05:06:06.750Z,24.77
2022-09-03T05:07:08.026Z,24.73
2022-09-03T05:08:08.626Z,24.70
2022-09-03T05:09:09.371Z,24.74
2022-09-03T05:10:09.967Z,24.76
2022-09-03T05:11:10.564Z,24.74
2022-09-03T05:12:11.214Z,24.73
2022-09-03T05:13:11.813Z,24.74
2022-09-03T05:14:12.461Z,24.70
2022-09-03T05:15:13.115Z,24.77
2022-09-03T05:16:13.793Z,24.66
2022-09-03T05:17:14.379Z,24.76
2022-09-03T05:18:15.061Z,24.73
2022-09-03T05:19:15.685Z,24.74
2022-09-03T05:20:16.291Z,24.76
2022-09-03T05:21:16.894Z,24.77
2022-09-03T05:22:17.483Z,24.68
2022-09-03T05:23:18.081Z,24.69
2022-09-03T05:24:18.725Z,24.69
2022-09-03T05:25:19.343Z,24.77
2022-09-03T05:26:20.102Z,24.74
2022-09-03T05:27:20.707Z,24.74
2022-09-03T05:28:21.311Z,24.70
2022-09-03T05:29:21.915Z,24.70
2022-09-03T05:30:22.572Z,24.68
2022-09-03T05:31:23.328Z,24.69
2022-09-03T05:32:24.111Z,24.76
2022-09-03T05:33:24.715Z,24.70
2022-09-03T05:34:25.354Z,24.70
2022-09-03T05:35:27.112Z,24.65
2022-09-03T05:36:27.540Z,24.69
2022-09-03T05:37:28.187Z,24.69
2022-09-03T05:38:28.798Z,24.77
2022-09-03T05:39:29.460Z,24.70
2022-09-03T05:40:30.052Z,24.69
2022-09-03T05:41:30.714Z,24.68
2022-09-03T05:42:31.297Z,24.73
2022-09-03T05:43:31.893Z,24.76
2022-09-03T05:44:32.488Z,24.61
2022-09-03T05:45:33.105Z,24.69
2022-09-03T05:46:33.767Z,24.65
2022-09-03T05:47:34.340Z,24.73
2022-09-03T05:48:34.935Z,24.58
2022-09-03T05:49:35.532Z,24.60
2022-09-03T05:50:36.142Z,24.60
2022-09-03T05:51:36.746Z,24.63
2022-09-03T05:52:37.349Z,24.63
2022-09-03T05:53:37.956Z,24.57
2022-09-03T05:54:38.555Z,24.77
2022-09-03T05:55:39.223Z,24.74
2022-09-03T05:56:39.827Z,24.60
2022-09-03T05:57:40.431Z,24.58
2022-09-03T05:58:41.032Z,24.58
2022-09-03T05:59:41.637Z,24.63
2022-09-03T06:00:42.237Z,24.73
2022-09-03T06:01:45.743Z,24.55
2022-09-03T06:02:43.664Z,24.55
2022-09-03T06:03:44.398Z,24.57
2022-09-03T06:04:45.070Z,24.61
2022-09-03T06:05:45.668Z,24.54
2022-09-03T06:06:47.257Z,24.61
2022-09-03T06:07:47.913Z,24.57
2022-09-03T06:08:48.509Z,24.57
2022-09-03T06:09:49.105Z,24.63
2022-09-03T06:10:49.702Z,24.65
2022-09-03T06:11:50.427Z,24.63
2022-09-03T06:12:51.890Z,24.58
2022-09-03T06:13:52.485Z,24.63
2022-09-03T06:14:53.080Z,24.57
2022-09-03T06:15:53.677Z,24.57
2022-09-03T06:16:54.283Z,24.60
2022-09-03T06:17:54.930Z,24.61
2022-09-03T06:18:55.539Z,24.65
2022-09-03T06:19:56.142Z,24.55
2022-09-03T06:20:56.745Z,24.63
2022-09-03T06:21:57.337Z,24.68
2022-09-03T06:22:57.944Z,24.58
2022-09-03T06:23:59.758Z,24.58
2022-09-03T06:24:59.213Z,24.63
2022-09-03T06:26:04.454Z,24.65
2022-09-03T06:27:01.409Z,24.66
2022-09-03T06:28:02.014Z,24.58
2022-09-03T06:29:02.617Z,24.61
2022-09-03T06:30:03.222Z,24.63
2022-09-03T06:31:03.811Z,24.54
2022-09-03T06:32:04.447Z,24.63
2022-09-03T06:33:05.071Z,24.61
2022-09-03T06:34:05.814Z,24.61
2022-09-03T06:35:06.532Z,24.58
2022-09-03T06:36:08.925Z,24.54
2022-09-03T06:37:08.781Z,24.57
2022-09-03T06:38:09.386Z,24.57
2022-09-03T06:39:09.977Z,24.63
2022-09-03T06:40:10.575Z,24.60
2022-09-03T06:41:11.319Z,24.61
2022-09-03T06:42:11.918Z,24.54
2022-09-03T06:43:12.516Z,24.60
2022-09-03T06:44:13.192Z,24.57
2022-09-03T06:45:13.760Z,24.60
2022-09-03T06:46:14.437Z,24.58
2022-09-03T06:47:15.050Z,24.57
2022-09-03T06:48:15.751Z,24.65
2022-09-03T06:49:16.370Z,24.55
2022-09-03T06:50:16.973Z,24.57
2022-09-03T06:51:17.561Z,24.57
2022-09-03T06:52:18.158Z,24.61
2022-09-03T06:53:18.754Z,24.57
2022-09-03T06:54:19.350Z,24.61
2022-09-03T06:55:19.947Z,24.60
2022-09-03T06:56:20.548Z,24.58
2022-09-03T06:57:21.144Z,24.68
2022-09-03T06:58:21.827Z,24.63
2022-09-03T06:59:22.445Z,24.65
2022-09-03T07:00:23.042Z,24.57
2022-09-03T07:01:23.751Z,24.58
2022-09-03T07:02:24.396Z,24.54
2022-09-03T07:04:14.172Z,24.65
2022-09-03T07:05:14.770Z,24.53
2022-09-03T07:08:46.214Z,24.60
2022-09-03T07:09:48.465Z,24.57
2022-09-03T07:10:48.406Z,24.61
2022-09-03T07:11:49.081Z,24.57
2022-09-03T07:12:49.660Z,24.54
2022-09-03T07:13:50.255Z,24.68
2022-09-03T07:14:51.235Z,24.60
2022-09-03T07:15:51.880Z,24.55
2022-09-03T07:16:52.483Z,24.55
2022-09-03T07:17:53.082Z,24.55
2022-09-03T07:18:53.681Z,24.60
2022-09-03T07:20:35.935Z,24.61
2022-09-03T07:21:36.533Z,24.51
2022-09-03T07:22:37.189Z,24.57
2022-09-03T07:23:37.784Z,24.55
2022-09-03T07:24:38.379Z,24.60
2022-09-03T07:25:38.978Z,24.63
2022-09-03T07:26:39.574Z,24.60
2022-09-03T07:27:40.176Z,24.57
2022-09-03T07:28:40.769Z,24.53
2022-09-03T07:29:41.365Z,24.57
2022-09-03T07:30:41.963Z,24.60
2022-09-03T07:31:42.654Z,24.57
2022-09-03T07:32:43.282Z,24.48
2022-09-03T07:33:43.888Z,24.53
2022-09-03T07:34:44.492Z,24.60
2022-09-03T07:35:45.094Z,24.53
2022-09-03T07:36:45.747Z,24.50
2022-09-03T07:37:46.501Z,24.53
2022-09-03T07:38:47.106Z,24.53
2022-09-03T07:39:47.780Z,24.55
2022-09-03T07:40:48.421Z,24.53
2022-09-03T07:41:49.026Z,24.38
2022-09-03T07:42:54.506Z,24.43
2022-09-03T07:43:51.373Z,24.45
2022-09-03T07:44:51.979Z,24.50
2022-09-03T07:45:52.598Z,24.51
2022-09-03T07:46:53.241Z,24.53
2022-09-03T07:47:54.046Z,24.48
2022-09-03T07:48:54.644Z,24.50
2022-09-03T07:49:55.243Z,24.50
2022-09-03T07:50:55.837Z,24.48
2022-09-03T07:51:56.434Z,24.51
2022-09-03T07:52:57.021Z,24.43
2022-09-03T07:53:57.614Z,24.51
2022-09-03T07:54:58.200Z,24.45
2022-09-03T07:55:58.839Z,24.38
2022-09-03T07:56:59.429Z,24.43
2022-09-03T07:58:00.125Z,24.40
2022-09-03T07:59:00.717Z,24.38
2022-09-03T08:00:01.322Z,24.39
2022-09-03T08:01:01.959Z,24.42
2022-09-03T08:02:02.574Z,24.47
2022-09-03T08:03:03.234Z,24.42
2022-09-03T08:04:04.068Z,24.42
2022-09-03T08:05:04.662Z,24.40
2022-09-03T08:06:05.257Z,24.42
2022-09-03T08:07:05.845Z,24.42
2022-09-03T08:08:06.449Z,24.40
2022-09-03T08:09:20.246Z,24.43
2022-09-03T08:10:20.839Z,24.39
2022-09-03T08:11:21.432Z,24.47
2022-09-03T08:12:22.079Z,24.38
2022-09-03T08:13:22.670Z,24.45
2022-09-03T08:14:23.262Z,24.43
2022-09-03T08:15:41.229Z,24.50
2022-09-03T08:16:41.824Z,24.45
2022-09-03T08:17:42.467Z,24.53
2022-09-03T08:18:43.639Z,24.45
2022-09-03T08:19:44.226Z,24.39
2022-09-03T08:20:44.818Z,24.40
2022-09-03T08:21:45.408Z,24.45
2022-09-03T08:22:46.004Z,24.45
2022-09-03T08:23:46.594Z,24.36
2022-09-03T08:24:47.242Z,24.40
2022-09-03T08:25:47.832Z,24.33
2022-09-03T08:27:01.239Z,24.42
2022-09-03T08:28:01.830Z,24.42
2022-09-03T08:29:02.419Z,24.43
2022-09-03T08:30:03.011Z,24.39
2022-09-03T08:31:03.651Z,24.42
2022-09-03T08:32:05.383Z,24.42
2022-09-03T08:33:06.076Z,24.36
2022-09-03T08:34:07.144Z,24.36
2022-09-03T08:35:09.042Z,24.42
2022-09-03T08:36:09.632Z,24.40
2022-09-03T08:37:10.223Z,24.38
2022-09-03T08:38:11.009Z,24.38
2022-09-03T08:39:11.625Z,24.42
2022-09-03T08:40:12.225Z,24.30
2022-09-03T08:41:12.870Z,24.35
2022-09-03T08:42:13.468Z,24.35
2022-09-03T08:43:14.068Z,24.36
2022-09-03T08:44:14.668Z,24.35
2022-09-03T08:45:15.319Z,24.39
2022-09-03T08:46:15.946Z,24.35
2022-09-03T08:50:32.004Z,24.39
2022-09-03T08:51:32.596Z,24.42
2022-09-03T08:52:33.195Z,24.28
2022-09-03T08:53:33.779Z,24.39
2022-09-03T08:54:34.521Z,24.35
2022-09-03T08:55:35.163Z,24.36
2022-09-03T08:56:35.755Z,24.39
2022-09-03T08:57:36.351Z,24.35
2022-09-03T08:58:37.089Z,24.35
2022-09-03T08:59:37.681Z,24.42
2022-09-03T09:00:38.273Z,24.38
2022-09-03T09:01:39.133Z,24.32
2022-09-03T09:02:39.957Z,24.39
2022-09-03T09:03:40.737Z,24.36
2022-09-03T09:04:41.339Z,24.40
2022-09-03T09:05:41.937Z,24.42
2022-09-03T09:06:42.535Z,24.39
2022-09-03T09:07:43.134Z,24.38
2022-09-03T09:08:43.733Z,24.45
2022-09-03T09:09:44.332Z,24.42
2022-09-03T09:10:44.932Z,24.36
2022-09-03T09:11:45.535Z,24.36
2022-09-03T09:12:47.056Z,24.32
2022-09-03T09:13:47.725Z,24.39
2022-09-03T09:14:48.326Z,24.39
2022-09-03T09:15:48.968Z,24.42
2022-09-03T09:16:50.227Z,24.38
2022-09-03T09:17:50.815Z,24.40
2022-09-03T09:18:51.406Z,24.40
2022-09-03T09:19:52.001Z,24.40
2022-09-03T09:20:52.602Z,24.40
2022-09-03T09:21:53.188Z,24.40
2022-09-03T09:22:53.780Z,24.42
2022-09-03T09:23:54.373Z,24.42
2022-09-03T09:24:54.965Z,24.40
2022-09-03T09:25:55.558Z,24.38
2022-09-03T09:26:56.149Z,24.38
2022-09-03T09:27:56.742Z,24.42
2022-09-03T09:28:57.482Z,24.42
2022-09-03T09:29:58.087Z,24.35
2022-09-03T09:30:58.749Z,24.36
2022-09-03T09:31:59.339Z,24.36
2022-09-03T09:32:59.938Z,24.39
2022-09-03T09:34:00.612Z,24.35
2022-09-03T09:35:01.168Z,24.35
2022-09-03T09:36:01.760Z,24.42
2022-09-03T09:37:02.354Z,24.30
2022-09-03T09:38:03.299Z,24.35
2022-09-03T09:39:03.899Z,24.38
2022-09-03T09:40:04.553Z,24.36
2022-09-03T09:41:05.146Z,24.38
2022-09-03T09:42:05.747Z,24.39
2022-09-03T09:43:06.393Z,24.38
2022-09-03T09:44:06.992Z,24.45
2022-09-03T09:45:07.589Z,24.40
2022-09-03T09:46:08.221Z,24.42
2022-09-03T09:47:08.867Z,24.38
2022-09-03T09:48:09.459Z,24.51
2022-09-03T09:49:10.054Z,24.50
2022-09-03T09:50:10.661Z,24.42
2022-09-03T09:51:12.256Z,24.38
2022-09-03T09:52:12.857Z,24.42
2022-09-03T09:53:13.456Z,24.42
2022-09-03T09:54:14.055Z,24.45
2022-09-03T09:55:14.654Z,24.42
2022-09-03T09:56:15.253Z,24.54
2022-09-03T09:57:15.853Z,24.45
2022-09-03T09:58:16.588Z,24.47
2022-09-03T09:59:17.178Z,24.40
2022-09-03T10:00:17.772Z,24.38
2022-09-03T10:01:18.382Z,24.39
2022-09-03T10:02:22.498Z,24.40
2022-09-03T10:03:20.669Z,24.40
2022-09-03T10:04:21.238Z,24.39
2022-09-03T10:05:21.834Z,24.33
2022-09-03T10:06:22.422Z,24.24
2022-09-03T10:07:23.019Z,24.29
2022-09-03T10:08:23.659Z,24.23
2022-09-03T10:09:31.092Z,24.21
2022-09-03T10:10:25.814Z,24.14
2022-09-03T10:11:26.399Z,24.10
2022-09-03T10:12:27.200Z,24.06
2022-09-03T10:14:43.215Z,24.06
2022-09-03T10:15:43.925Z,24.01
2022-09-03T10:16:44.726Z,24.03
2022-09-03T10:17:45.846Z,23.98
2022-09-03T10:18:46.445Z,23.93
2022-09-03T10:19:47.047Z,23.92
2022-09-03T10:20:47.647Z,24.03
2022-09-03T10:21:48.505Z,23.92
2022-09-03T10:24:07.572Z,23.88
2022-09-03T10:25:19.277Z,23.96
2022-09-03T10:26:19.876Z,24.01
2022-09-03T10:27:20.471Z,23.95
2022-09-03T10:28:21.062Z,23.93
2022-09-03T10:29:21.656Z,23.98
2022-09-03T10:30:22.308Z,23.98
2022-09-03T10:31:36.362Z,23.95
2022-09-03T10:32:38.936Z,23.91
2022-09-03T10:33:38.518Z,23.93
2022-09-03T10:34:39.108Z,23.95
2022-09-03T10:35:39.701Z,24.06
2022-09-03T10:36:40.294Z,23.92
2022-09-03T10:37:40.887Z,23.95
2022-09-03T10:38:41.482Z,23.98
2022-09-03T10:39:42.704Z,23.92
2022-09-03T10:40:43.662Z,23.93
2022-09-03T10:41:44.255Z,23.87
2022-09-03T10:42:44.863Z,23.88
2022-09-03T10:43:45.461Z,23.93
2022-09-03T10:44:46.060Z,23.96
2022-09-03T10:45:46.659Z,23.91
2022-09-03T10:46:47.297Z,23.91
2022-09-03T10:47:48.070Z,23.98
2022-09-03T10:48:48.664Z,23.92
2022-09-03T10:49:49.262Z,23.93
2022-09-03T10:51:22.437Z,23.86
2022-09-03T10:52:23.030Z,23.83
2022-09-03T10:53:23.671Z,23.91
2022-09-03T10:54:24.264Z,23.87
2022-09-03T10:55:24.857Z,23.87
2022-09-03T10:57:40.878Z,23.91
2022-09-03T10:58:41.473Z,23.95
2022-09-03T10:59:42.063Z,23.98
2022-09-03T11:00:42.655Z,23.95
2022-09-03T11:01:43.284Z,24.06
2022-09-03T11:02:44.013Z,24.02
2022-09-03T11:03:44.638Z,23.96
2022-09-03T11:04:45.337Z,23.98
2022-09-03T11:05:45.935Z,24.05
2022-09-03T11:06:46.535Z,24.03
2022-09-03T11:07:47.134Z,24.05
2022-09-03T11:08:47.734Z,24.06
2022-09-03T11:09:48.333Z,24.10
2022-09-03T11:10:48.933Z,24.11
2022-09-03T11:11:49.533Z,24.13
2022-09-03T11:18:20.620Z,24.28
2022-09-03T11:19:21.214Z,24.23
2022-09-03T11:20:21.806Z,24.24
2022-09-03T11:21:22.400Z,24.28
2022-09-03T11:22:22.992Z,24.28
2022-09-03T11:23:23.588Z,24.26
2022-09-03T11:24:24.184Z,24.28
2022-09-03T11:25:24.924Z,24.30
2022-09-03T11:26:25.517Z,24.29
2022-09-03T11:27:26.111Z,24.32
2022-09-03T11:28:26.704Z,24.39
2022-09-03T11:29:27.468Z,24.42
2022-09-03T11:30:28.067Z,24.39
2022-09-03T11:31:28.841Z,24.32
2022-09-03T11:32:29.588Z,24.33
2022-09-03T11:33:30.191Z,24.42
2022-09-03T11:34:31.962Z,24.42
2022-09-03T11:35:32.532Z,24.39
2022-09-03T11:36:33.132Z,24.36
2022-09-03T11:37:33.731Z,24.36
2022-09-03T11:38:35.080Z,24.38
2022-09-03T11:39:35.773Z,24.43
2022-09-03T11:40:36.404Z,24.36
2022-09-03T11:41:37.004Z,24.43
2022-09-03T11:42:37.601Z,24.42
2022-09-03T11:43:38.202Z,24.39
2022-09-03T11:44:44.816Z,24.43
2022-09-03T11:45:40.645Z,24.39
2022-09-03T11:46:41.265Z,24.50
2022-09-03T11:47:41.858Z,24.51
2022-09-03T11:48:42.509Z,24.50
2022-09-03T11:49:43.104Z,24.47
2022-09-03T11:50:43.700Z,24.50
2022-09-03T11:51:44.293Z,24.50
2022-09-03T11:52:44.889Z,24.45
2022-09-03T11:53:45.482Z,24.48
2022-09-03T11:54:46.078Z,24.45
2022-09-03T11:55:46.724Z,24.55
2022-09-03T11:56:47.318Z,24.54
2022-09-03T11:57:47.925Z,24.48
2022-09-03T11:58:48.522Z,24.51
2022-09-03T11:59:49.121Z,24.51
2022-09-03T12:00:49.725Z,24.43
2022-09-03T12:01:50.310Z,24.50
2022-09-03T12:02:54.305Z,24.54
2022-09-03T12:03:51.553Z,24.43
2022-09-03T12:04:52.187Z,24.54
2022-09-03T12:05:53.746Z,24.40
2022-09-03T12:06:54.447Z,24.53
2022-09-03T12:07:55.048Z,24.48
2022-09-03T12:08:55.648Z,24.53
2022-09-03T12:09:56.250Z,24.54
2022-09-03T12:10:56.850Z,24.48
2022-09-03T12:11:57.450Z,24.58
2022-09-03T12:12:59.044Z,24.43
2022-09-03T12:13:59.632Z,24.48
2022-09-03T12:15:00.225Z,24.50
2022-09-03T12:16:00.873Z,24.60
2022-09-03T12:17:01.473Z,24.61
2022-09-03T12:18:02.078Z,24.55
2022-09-03T12:19:02.676Z,24.55
2022-09-03T12:20:03.280Z,24.55
2022-09-03T12:21:03.877Z,24.43
2022-09-03T12:22:04.480Z,24.45
2022-09-03T12:23:05.077Z,24.60
2022-09-03T12:24:05.676Z,24.57
2022-09-03T12:25:06.275Z,24.55
2022-09-03T12:26:07.611Z,24.55
2022-09-03T12:27:08.206Z,24.60
2022-09-03T12:28:08.798Z,24.57
2022-09-03T12:29:09.463Z,24.58
2022-09-03T12:30:11.061Z,24.57
2022-09-03T12:31:11.740Z,24.60
2022-09-03T12:32:12.359Z,24.55
2022-09-03T12:33:13.101Z,24.61
2022-09-03T12:34:13.745Z,24.55
2022-09-03T12:35:14.387Z,24.57
2022-09-03T12:36:14.952Z,24.58
2022-09-03T12:37:15.543Z,24.55
2022-09-03T12:38:18.750Z,24.61
2022-09-03T12:39:17.984Z,24.60
2022-09-03T12:40:18.762Z,24.50
2022-09-03T12:41:23.168Z,24.57
2022-09-03T12:42:20.999Z,24.57
2022-09-03T12:43:38.148Z,24.58
2022-09-03T12:44:23.245Z,24.55
2022-09-03T12:45:24.043Z,24.57
2022-09-03T12:46:33.214Z,24.63
2022-09-03T12:47:36.529Z,24.58
2022-09-03T12:48:28.059Z,24.50
2022-09-03T12:49:30.514Z,24.55
2022-09-03T12:50:30.205Z,24.55
2022-09-03T12:52:32.395Z,24.55
2022-09-03T12:53:32.994Z,24.58
2022-09-03T12:54:34.573Z,24.58
2022-09-03T12:55:35.165Z,24.63
2022-09-03T12:56:35.760Z,24.60
2022-09-03T12:57:36.356Z,24.58
2022-09-03T12:58:36.962Z,24.60
2022-09-03T12:59:37.563Z,24.57
2022-09-03T13:00:38.159Z,24.57
2022-09-03T13:01:38.894Z,24.60
2022-09-03T13:02:39.497Z,24.57
2022-09-03T13:03:40.090Z,24.55
2022-09-03T13:04:40.683Z,24.54
2022-09-03T13:05:41.336Z,24.61
2022-09-03T13:06:41.930Z,24.61
2022-09-03T13:07:43.840Z,24.63
2022-09-03T13:08:44.159Z,24.55
2022-09-03T13:09:44.753Z,24.63
2022-09-03T13:10:45.359Z,24.58
2022-09-03T13:11:45.958Z,24.54
2022-09-03T13:12:49.837Z,24.55
2022-09-03T13:13:48.148Z,24.63
2022-09-03T13:14:52.671Z,24.63
2022-09-03T13:15:50.319Z,24.50
2022-09-03T13:16:50.964Z,24.60
2022-09-03T13:17:51.552Z,24.58
2022-09-03T13:18:52.153Z,24.54
2022-09-03T13:19:52.752Z,24.61
2022-09-03T13:20:53.353Z,24.61
2022-09-03T13:21:53.950Z,24.63